Time;durP1;ratioP1;P1;durP2;ratioP2;P2;SDS_P1;SDS_P2;PMS_P1;PMS_P2;Temp;Humidity;BMP_temperature;BMP_pressure;BME280_temperature;BME280_humidity;BME280_pressure;Samples;Min_cycle;Max_cycle;Signal;HPM_P1;HPM_P2
2021/12/14 00:00:16;;;;;;;82.72;38.85;;;;;;;1.55;88.82;101958.64;1648930;85;20907;-74
2021/12/14 00:02:48;;;;;;;87.27;39.15;;;;;;;1.54;88.84;101960.33;1659937;85;20918;-74
2021/12/14 00:05:19;;;;;;;89.97;39.27;;;;;;;1.54;88.85;101961.59;1647506;86;20951;-74
2021/12/14 00:07:45;;;;;;;81.02;37.53;;;;;;;1.56;88.86;101965.05;1658847;83;20916;-74
2021/12/14 00:10:43;;;;;;;91.35;37.85;;;;;;;1.58;88.86;101957.47;1657353;83;20907;-74
2021/12/14 00:12:59;;;;;;;80.38;37.48;;;;;;;1.59;88.86;101960.48;1672042;85;20899;-74
2021/12/14 00:15:22;;;;;;;82.78;37.17;;;;;;;1.60;88.87;101953.30;1676519;83;21520;-74
2021/12/14 00:18:00;;;;;;;86.32;38.70;;;;;;;1.60;88.87;101954.17;1664878;85;20940;-74
2021/12/14 00:20:48;;;;;;;92.20;38.10;;;;;;;1.61;88.87;101961.42;1674598;83;20935;-74
2021/12/14 00:26:06;;;;;;;82.02;36.73;;;;;;;1.62;88.86;101946.19;1649481;85;20907;-74
2021/12/14 00:28:35;;;;;;;84.62;37.60;;;;;;;1.64;88.91;101948.80;1649219;85;20860;-74
2021/12/14 00:31:09;;;;;;;82.50;37.63;;;;;;;1.63;88.89;101942.83;1649613;85;20860;-74
2021/12/14 00:33:36;;;;;;;77.00;36.68;;;;;;;1.62;88.86;101944.05;1676743;83;20903;-74
2021/12/14 00:36:06;;;;;;;82.70;36.60;;;;;;;1.63;88.85;101953.44;1661391;84;20915;-74
2021/12/14 00:38:35;;;;;;;69.37;34.18;;;;;;;1.64;88.87;101955.17;1660925;83;20923;-74
2021/12/14 00:41:10;;;;;;;76.22;34.85;;;;;;;1.64;88.87;101952.63;1676935;83;20934;-74
2021/12/14 00:43:37;;;;;;;68.47;30.95;;;;;;;1.64;88.90;101948.40;1676600;85;21381;-74
2021/12/14 00:46:05;;;;;;;70.55;32.33;;;;;;;1.66;88.91;101959.53;1676822;85;20904;-74
2021/12/14 00:48:31;;;;;;;69.62;32.00;;;;;;;1.68;88.95;101957.45;1676609;84;20911;-74
2021/12/14 00:51:01;;;;;;;59.13;30.80;;;;;;;1.69;89.20;101955.37;1664811;85;20994;-74
2021/12/14 00:53:28;;;;;;;58.50;29.37;;;;;;;1.71;89.48;101957.17;1676183;85;20947;-74
2021/12/14 00:55:58;;;;;;;57.93;28.42;;;;;;;1.74;89.74;101957.30;1674432;84;21070;-74
2021/12/14 00:58:25;;;;;;;58.30;28.85;;;;;;;1.78;89.90;101955.75;1652533;85;21589;-74
2021/12/14 01:01:08;;;;;;;53.17;27.07;;;;;;;1.80;90.01;101955.41;1646751;85;21090;-74
2021/12/14 01:03:38;;;;;;;56.65;28.02;;;;;;;1.82;90.09;101953.80;1662022;83;20911;-74
2021/12/14 01:06:10;;;;;;;57.48;27.50;;;;;;;1.84;90.16;101949.22;1647132;85;21061;-74
2021/12/14 01:08:39;;;;;;;60.55;28.38;;;;;;;1.85;90.24;101953.52;1649989;85;21114;-74
2021/12/14 01:11:16;;;;;;;64.15;29.02;;;;;;;1.86;90.28;101951.43;1665432;83;20963;-74
2021/12/14 01:13:55;;;;;;;57.55;26.48;;;;;;;1.87;90.34;101953.17;1662741;85;21133;-74
2021/12/14 01:16:48;;;;;;;57.48;26.30;;;;;;;1.90;90.44;101952.42;1659960;86;21063;-75
2021/12/14 01:19:19;;;;;;;52.27;25.82;;;;;;;1.92;90.44;101957.19;1646154;86;21117;-74
2021/12/14 01:24:51;;;;;;;61.00;27.55;;;;;;;1.93;90.43;101954.70;1634373;86;21130;-74
2021/12/14 01:26:52;;;;;;;60.98;28.80;;;;;;;1.95;90.44;101959.86;1635990;85;20927;-74
2021/12/14 01:29:19;;;;;;;56.68;27.40;;;;;;;1.95;90.43;101948.38;1654787;86;20947;-74
2021/12/14 01:31:48;;;;;;;55.50;26.15;;;;;;;1.95;90.44;101946.70;1636858;86;20926;-74
2021/12/14 01:34:19;;;;;;;56.68;27.65;;;;;;;1.95;90.46;101945.83;1634442;86;20942;-74
2021/12/14 01:36:51;;;;;;;57.67;25.25;;;;;;;1.95;90.47;101949.25;1634438;86;20919;-74
2021/12/14 01:41:51;;;;;;;57.40;27.58;;;;;;;1.96;90.51;101948.84;1636827;87;20950;-74
2021/12/14 01:44:18;;;;;;;56.15;26.60;;;;;;;1.97;90.55;101948.04;1636666;87;20926;-74
2021/12/14 01:46:52;;;;;;;53.42;24.80;;;;;;;1.97;90.53;101944.21;1637428;84;20935;-74
2021/12/14 01:49:19;;;;;;;357.30;43.80;;;;;;;1.97;90.53;101945.48;1637350;86;21880;-74
2021/12/14 01:51:50;;;;;;;141.55;45.78;;;;;;;1.98;90.57;101940.86;1636726;87;20977;-75
2021/12/14 01:54:21;;;;;;;57.10;27.13;;;;;;;1.98;90.60;101941.73;1636764;87;20923;-74
2021/12/14 01:56:47;;;;;;;65.57;30.85;;;;;;;2.00;90.61;101937.96;1646843;86;21418;-74
2021/12/14 01:59:23;;;;;;;648.65;323.87;;;;;;;2.01;90.61;101936.28;1664309;84;20919;-74
2021/12/14 02:02:09;;;;;;;60.05;28.00;;;;;;;2.02;90.62;101932.92;1663718;84;20915;-74
2021/12/14 02:04:28;;;;;;;60.83;25.88;;;;;;;2.02;90.59;101935.06;1640379;86;20955;-74
2021/12/14 02:07:05;;;;;;;56.02;27.50;;;;;;;2.03;90.54;101939.77;1652870;86;20927;-74
2021/12/14 02:09:34;;;;;;;61.05;27.48;;;;;;;2.03;90.50;101932.11;1663854;85;20948;-74
2021/12/14 02:12:11;;;;;;;65.00;28.27;;;;;;;2.02;90.47;101933.80;1650003;85;21125;-74
2021/12/14 02:14:45;;;;;;;56.53;26.23;;;;;;;2.04;90.47;101932.58;1662407;85;21392;-74
2021/12/14 02:17:15;;;;;;;54.27;26.02;;;;;;;2.05;90.48;101936.47;1667430;84;21412;-74
2021/12/14 02:19:44;;;;;;;62.10;24.90;;;;;;;2.03;90.45;101931.70;1660071;84;21068;-74
2021/12/14 02:22:17;;;;;;;51.70;25.48;;;;;;;2.04;90.42;101930.03;1651069;86;21562;-74
2021/12/14 02:24:46;;;;;;;;;;;;;;;2.05;90.44;101932.64;1664161;85;21014;-74
2021/12/14 02:27:13;;;;;;;51.55;24.57;;;;;;;2.05;90.48;101927.94;1636070;86;20440;-74
2021/12/14 02:29:44;;;;;;;58.40;26.93;;;;;;;2.06;90.46;101929.68;1645495;86;21323;-74
2021/12/14 02:32:21;;;;;;;55.50;25.85;;;;;;;2.05;90.46;101928.81;1642516;86;21073;-74
2021/12/14 02:34:56;;;;;;;62.33;25.62;;;;;;;2.05;90.44;101920.28;1655501;86;21593;-74
2021/12/14 02:37:42;;;;;;;58.48;26.73;;;;;;;2.04;90.42;101923.24;1643958;86;21498;-74
2021/12/14 02:40:20;;;;;;;55.88;26.00;;;;;;;2.03;90.41;101925.33;1640328;86;21388;-74
2021/12/14 02:42:51;;;;;;;60.80;29.35;;;;;;;2.03;90.41;101915.53;1646011;86;21066;-74
2021/12/14 02:45:25;;;;;;;59.70;28.17;;;;;;;2.01;90.42;101915.47;1638597;85;21390;-74
2021/12/14 02:47:52;;;;;;;62.48;28.60;;;;;;;2.00;90.43;101917.55;1635267;86;20962;-74
2021/12/14 02:50:21;;;;;;;59.95;29.20;;;;;;;2.01;90.45;101920.98;1634596;86;21042;-75
2021/12/14 02:52:48;;;;;;;60.35;28.70;;;;;;;2.00;90.47;101921.37;1634839;86;21386;-74
2021/12/14 02:55:18;;;;;;;;;;;;;;;2.02;90.49;101920.16;1645379;86;21066;-74
2021/12/14 02:57:49;;;;;;;63.35;27.98;;;;;;;2.02;90.55;101910.83;1610284;87;20748;-74
2021/12/14 03:00:27;;;;;;;52.93;28.07;;;;;;;2.02;90.50;101907.41;1641688;86;21064;-74
2021/12/14 03:02:58;;;;;;;69.00;28.45;;;;;;;2.01;90.53;101898.89;1642828;86;21347;-74
2021/12/14 03:05:29;;;;;;;57.90;27.20;;;;;;;2.00;90.48;101895.88;1639739;84;20950;-74
2021/12/14 03:08:04;;;;;;;55.63;27.85;;;;;;;1.98;90.48;101891.11;1640158;86;20963;-74
2021/12/14 03:10:49;;;;;;;58.30;27.30;;;;;;;1.96;90.47;101883.80;1648178;84;20961;-74
2021/12/14 03:13:10;;;;;;;61.18;27.80;;;;;;;1.96;90.48;101882.53;1680032;83;20903;-74
2021/12/14 03:15:51;;;;;;;51.58;26.35;;;;;;;1.95;90.51;101886.77;1695613;83;20918;-74
2021/12/14 03:18:22;;;;;;;51.73;27.25;;;;;;;1.95;90.53;101891.86;1680435;84;20902;-74
2021/12/14 03:21:01;;;;;;;53.85;26.52;;;;;;;1.95;90.56;101886.77;1678034;84;20921;-74
2021/12/14 03:23:35;;;;;;;58.15;26.75;;;;;;;1.98;90.62;101891.98;1647085;84;20953;-74
2021/12/14 03:26:06;;;;;;;55.80;27.58;;;;;;;1.99;90.60;101896.27;1685352;83;21516;-74
2021/12/14 03:28:34;;;;;;;52.85;26.70;;;;;;;2.02;90.61;101894.25;1674157;84;20958;-74
2021/12/14 03:31:26;;;;;;;56.58;27.90;;;;;;;2.03;90.63;101896.39;1687452;84;20917;-74
2021/12/14 03:34:00;;;;;;;63.15;28.10;;;;;;;2.05;90.64;101889.67;1677663;84;20926;-74
2021/12/14 03:36:31;;;;;;;53.98;27.87;;;;;;;2.06;90.65;101889.73;1673503;84;21410;-74
2021/12/14 03:39:21;;;;;;;61.23;29.35;;;;;;;2.09;90.66;101885.99;1690888;84;20898;-74
2021/12/14 03:41:55;;;;;;;54.58;27.22;;;;;;;2.10;90.66;101882.63;1693789;84;20910;-74
2021/12/14 03:44:32;;;;;;;63.55;28.15;;;;;;;2.11;90.64;101875.84;1688259;84;20918;-74
2021/12/14 03:47:25;;;;;;;58.95;27.42;;;;;;;2.12;90.64;101880.14;1671928;84;20930;-74
2021/12/14 03:49:56;;;;;;;59.75;28.52;;;;;;;2.12;90.61;101881.02;1677545;84;21112;-74
2021/12/14 03:52:29;;;;;;;56.63;27.67;;;;;;;2.13;90.66;101877.65;1679376;83;21575;-74
2021/12/14 03:54:57;;;;;;;61.77;28.25;;;;;;;2.15;90.70;101869.64;1686077;84;21113;-74
2021/12/14 03:57:24;;;;;;;65.08;29.77;;;;;;;2.19;90.74;101870.63;1670148;84;21021;-74
2021/12/14 03:59:50;;;;;;;;;;;;;;;2.20;90.71;101868.14;1673121;84;21148;-74
2021/12/14 04:02:19;;;;;;;58.08;27.48;;;;;;;2.20;90.74;101857.94;1675596;82;20198;-74
2021/12/14 04:05:05;;;;;;;60.10;28.80;;;;;;;2.21;90.69;101860.08;1651852;85;21017;-74
2021/12/14 04:07:33;;;;;;;59.73;28.98;;;;;;;2.18;90.67;101860.83;1669518;84;21469;-74
2021/12/14 04:10:00;;;;;;;57.90;28.07;;;;;;;2.18;90.65;101867.21;1670268;84;21132;-74
2021/12/14 04:12:26;;;;;;;;;;;;;;;2.18;90.65;101866.34;1665066;84;21053;-74
2021/12/14 04:14:55;;;;;;;;;;;;;;;2.19;90.71;101865.53;1674560;84;20243;-74
2021/12/14 04:17:25;;;;;;;49.55;24.47;;;;;;;2.19;90.75;101857.88;1687189;83;20464;-74
2021/12/14 04:19:52;;;;;;;49.63;26.33;;;;;;;2.18;90.68;101857.41;1665409;84;21030;-74
2021/12/14 04:22:29;;;;;;;55.95;27.37;;;;;;;2.18;90.73;101850.63;1665426;84;20915;-74
2021/12/14 04:25:00;;;;;;;53.35;26.68;;;;;;;2.19;90.70;101847.67;1670399;84;20966;-74
2021/12/14 04:27:30;;;;;;;57.50;26.77;;;;;;;2.19;90.71;101845.12;1682113;84;21049;-74
2021/12/14 04:30:03;;;;;;;54.75;26.80;;;;;;;2.17;90.67;101841.64;1662066;84;20993;-74
2021/12/14 04:32:30;;;;;;;49.60;25.30;;;;;;;2.16;90.68;101844.59;1678233;83;20949;-74
2021/12/14 04:34:56;;;;;;;;;;;;;;;2.15;90.69;101839.03;1666107;84;21565;-74
2021/12/14 04:37:24;;;;;;;53.05;25.35;;;;;;;2.16;90.76;101844.59;1674474;83;20228;-74
2021/12/14 04:40:13;;;;;;;52.48;26.52;;;;;;;2.17;90.74;101846.74;1680634;84;21001;-74
2021/12/14 04:53:54;;;;;;;45.65;24.45;;;;;;;2.13;90.71;101836.83;1664203;84;20914;-74
2021/12/14 04:56:34;;;;;;;46.45;24.10;;;;;;;2.14;90.73;101837.70;1680892;84;20927;-74
2021/12/14 04:59:11;;;;;;;51.50;24.75;;;;;;;2.14;90.74;101835.14;1718905;81;287431;-74
2021/12/14 05:01:42;;;;;;;46.58;23.42;;;;;;;2.15;90.72;101829.23;1740443;80;20936;-74
2021/12/14 05:04:15;;;;;;;51.05;22.35;;;;;;;2.15;90.74;101835.20;1726852;81;22009;-74
2021/12/14 05:06:52;;;;;;;46.40;23.45;;;;;;;2.16;90.76;101826.73;1713228;81;20960;-74
2021/12/14 05:09:29;;;;;;;48.95;22.60;;;;;;;2.19;90.80;101827.25;1730834;81;25082;-74
2021/12/14 05:12:07;;;;;;;40.73;21.27;;;;;;;2.20;90.78;101831.14;1718337;82;20890;-74
2021/12/14 05:17:18;;;;;;;42.27;21.53;;;;;;;2.25;90.75;101823.25;1857772;75;21932;-73
2021/12/14 05:19:47;;;;;;;45.28;22.60;;;;;;;2.22;90.77;101819.31;1843868;77;20897;-73
2021/12/14 05:22:21;;;;;;;49.73;22.13;;;;;;;2.22;90.77;101818.03;1856313;77;20917;-73
2021/12/14 05:24:56;;;;;;;43.63;20.80;;;;;;;2.24;90.79;101815.13;1835363;77;20874;-71
2021/12/14 05:27:33;;;;;;;47.67;22.58;;;;;;;2.24;90.80;101818.96;1836988;77;20992;-70
2021/12/14 05:30:10;;;;;;;40.35;20.08;;;;;;;2.24;90.78;101811.71;1842118;77;21366;-71
2021/12/14 05:32:38;;;;;;;41.28;21.40;;;;;;;2.23;90.77;101810.84;1833444;77;20949;-71
2021/12/14 05:35:19;;;;;;;43.28;20.50;;;;;;;2.24;90.82;101811.30;1833576;76;21515;-71
2021/12/14 05:37:51;;;;;;;53.02;21.80;;;;;;;2.25;90.83;101811.77;1834379;77;21519;-71
2021/12/14 05:40:36;;;;;;;44.90;21.93;;;;;;;2.24;90.81;101813.86;1833370;77;22358;-71
2021/12/14 05:43:07;;;;;;;45.75;21.90;;;;;;;2.25;90.83;101814.73;1840074;76;21484;-71
2021/12/14 05:45:47;;;;;;;38.63;19.42;;;;;;;2.26;90.83;101809.68;1846413;77;21021;-73
2021/12/14 05:48:22;;;;;;;39.35;20.20;;;;;;;2.28;90.85;101808.46;1852690;77;21516;-72
2021/12/14 05:50:53;;;;;;;43.65;20.52;;;;;;;2.27;90.83;101803.77;1853933;77;21456;-72
2021/12/14 05:53:31;;;;;;;43.17;20.35;;;;;;;2.29;90.87;101806.37;1818330;77;21558;-72
2021/12/14 05:56:01;;;;;;;37.23;19.17;;;;;;;2.28;90.87;101808.05;1819156;77;22285;-71
2021/12/14 05:58:29;;;;;;;49.40;21.17;;;;;;;2.29;90.90;101809.80;1824918;77;21498;-71
2021/12/14 06:01:03;;;;;;;36.58;19.42;;;;;;;2.30;90.87;101801.73;1744284;80;20898;-71
2021/12/14 06:03:39;;;;;;;37.09;20.75;;;;;;;2.29;90.87;101790.66;1617056;80;10001257;-71
2021/12/14 06:06:16;;;;;;;40.12;19.57;;;;;;;2.29;91.00;101798.31;1749489;80;20864;-71
2021/12/14 06:08:43;;;;;;;40.03;20.25;;;;;;;2.30;90.86;101796.63;1770588;80;21351;-71
2021/12/14 06:11:25;;;;;;;38.23;18.07;;;;;;;2.29;90.85;101790.66;1711295;81;430522;-71
2021/12/14 06:13:51;;;;;;;37.00;18.17;;;;;;;2.30;90.87;101792.39;1731312;82;21466;-71
2021/12/14 06:16:31;;;;;;;37.73;18.42;;;;;;;2.30;90.88;101786.42;1734275;82;21909;-71
2021/12/14 06:19:22;;;;;;;40.90;18.82;;;;;;;2.29;90.88;101777.89;1697879;83;21304;-71
2021/12/14 06:21:53;;;;;;;42.93;19.20;;;;;;;2.28;90.85;101780.39;1690959;82;20965;-71
2021/12/14 06:24:25;;;;;;;37.03;19.55;;;;;;;2.29;90.91;101779.17;1713045;82;21582;-71
2021/12/14 06:26:54;;;;;;;36.77;18.00;;;;;;;2.31;90.94;101777.95;1689850;82;21877;-71
2021/12/14 06:29:26;;;;;;;37.28;18.73;;;;;;;2.31;90.90;101780.50;1701284;82;21366;-71
2021/12/14 06:31:58;;;;;;;37.42;18.07;;;;;;;2.32;90.92;101783.52;1716356;82;21735;-71
2021/12/14 06:34:29;;;;;;;31.33;16.95;;;;;;;2.32;90.93;101785.66;1716363;82;20913;-71
2021/12/14 06:37:27;;;;;;;37.08;18.20;;;;;;;2.32;90.94;101783.11;1708243;82;20933;-71
2021/12/14 06:40:18;;;;;;;33.33;17.05;;;;;;;2.34;90.94;101788.27;1730740;82;20921;-71
2021/12/14 06:42:58;;;;;;;34.48;17.23;;;;;;;2.35;90.94;101791.28;1728977;81;20937;-71
2021/12/14 06:45:44;;;;;;;42.05;17.37;;;;;;;2.35;90.95;101796.39;1703765;81;20913;-71
2021/12/14 06:48:19;;;;;;;38.65;19.20;;;;;;;2.37;90.98;101796.44;1697580;83;20938;-71
2021/12/14 06:51:07;;;;;;;34.58;17.98;;;;;;;2.37;90.97;101795.17;1699497;83;21868;-71
2021/12/14 06:53:36;;;;;;;285.45;90.22;;;;;;;2.37;90.98;101792.21;1715259;83;21268;-71
2021/12/14 06:56:08;;;;;;;41.55;18.87;;;;;;;2.38;90.99;101797.78;1689566;83;21413;-71
2021/12/14 06:58:40;;;;;;;38.67;19.48;;;;;;;2.39;91.04;101806.30;1701769;82;21757;-71
2021/12/14 07:01:14;;;;;;;41.68;19.65;;;;;;;2.41;91.05;101807.23;1708490;83;20981;-70
2021/12/14 07:03:48;;;;;;;49.90;20.32;;;;;;;2.42;91.06;101808.56;1713264;83;20929;-70
2021/12/14 07:06:36;;;;;;;37.35;20.45;;;;;;;2.44;91.07;101810.77;1695256;83;21380;-70
2021/12/14 07:09:11;;;;;;;44.42;18.73;;;;;;;2.46;91.06;101814.23;1733045;82;20953;-70
2021/12/14 07:11:42;;;;;;;43.02;19.35;;;;;;;2.48;91.06;101813.02;1723486;82;21367;-71
2021/12/14 07:14:17;;;;;;;40.88;19.67;;;;;;;2.50;91.06;101817.37;1731456;82;20954;-70
2021/12/14 07:16:47;;;;;;;40.63;19.15;;;;;;;2.52;91.06;101818.70;1705767;81;21044;-70
2021/12/14 07:19:12;;;;;;;43.98;19.95;;;;;;;2.52;91.02;101814.87;1713125;82;21064;-70
2021/12/14 07:21:46;;;;;;;48.38;19.90;;;;;;;2.53;91.04;101820.44;1713648;82;21096;-70
2021/12/14 07:24:29;;;;;;;38.35;19.17;;;;;;;2.53;91.04;101827.69;1711584;82;21072;-70
2021/12/14 07:27:19;;;;;;;40.00;19.98;;;;;;;2.54;91.04;101828.56;1700437;82;21080;-70
2021/12/14 07:30:34;;;;;;;43.70;20.37;;;;;;;2.55;91.04;101829.89;1712070;82;21096;-70
2021/12/14 07:33:20;;;;;;;38.92;19.20;;;;;;;2.57;91.07;101828.67;1708761;82;21185;-71
2021/12/14 07:36:09;;;;;;;41.68;20.48;;;;;;;2.56;91.05;101823.97;1701164;82;21049;-70
2021/12/14 07:38:49;;;;;;;38.38;19.73;;;;;;;2.56;91.04;101823.97;1700553;82;21059;-70
2021/12/14 07:41:32;;;;;;;44.18;20.70;;;;;;;2.58;91.08;101827.85;1714939;82;21056;-71
2021/12/14 07:44:06;;;;;;;59.10;32.35;;;;;;;2.58;91.08;101817.23;1719974;82;20977;-71
2021/12/14 07:46:48;;;;;;;65.20;38.42;;;;;;;2.59;91.06;101814.27;1701250;82;21525;-70
2021/12/14 07:49:25;;;;;;;65.08;38.85;;;;;;;2.59;91.05;101821.94;1716565;82;21120;-70
2021/12/14 07:52:00;;;;;;;162.65;93.97;;;;;;;2.59;91.05;101816.83;1711392;82;21127;-70
2021/12/14 07:54:34;;;;;;;189.10;112.25;;;;;;;2.60;91.07;101823.67;1700703;82;21052;-70
2021/12/14 07:57:10;;;;;;;73.72;42.13;;;;;;;2.61;91.09;101817.31;1723187;82;21076;-71
2021/12/14 07:59:42;;;;;;;101.18;54.88;;;;;;;2.62;91.09;101809.24;1714986;82;21995;-71
2021/12/14 08:02:13;;;;;;;98.05;51.98;;;;;;;2.63;91.09;101810.98;1709122;82;20941;-70
2021/12/14 08:04:48;;;;;;;62.05;32.28;;;;;;;2.65;91.08;101805.52;1705512;82;20917;-70
2021/12/14 08:07:36;;;;;;;92.55;53.98;;;;;;;2.65;91.07;101813.18;1718824;82;20886;-71
2021/12/14 08:10:15;;;;;;;51.65;26.35;;;;;;;2.64;91.06;101814.00;1703814;82;20965;-71
2021/12/14 08:13:08;;;;;;;86.80;50.58;;;;;;;2.63;91.06;101807.15;1715749;82;20949;-71
2021/12/14 08:15:43;;;;;;;65.75;35.63;;;;;;;2.64;91.08;101807.20;1711577;82;20937;-71
2021/12/14 08:18:29;;;;;;;63.73;34.70;;;;;;;2.65;91.09;101803.84;1711937;82;20910;-71
2021/12/14 08:21:12;;;;;;;42.13;21.85;;;;;;;2.67;91.09;101805.17;1719563;82;20870;-71
2021/12/14 08:23:58;;;;;;;38.50;21.40;;;;;;;2.67;91.05;101803.89;1715623;82;21374;-71
2021/12/14 08:26:35;;;;;;;48.95;24.43;;;;;;;2.66;91.02;101798.32;1724063;82;21123;-71
2021/12/14 08:29:18;;;;;;;45.23;23.62;;;;;;;2.68;91.08;101795.41;1718771;82;21485;-71
2021/12/14 08:31:50;;;;;;;37.10;20.30;;;;;;;2.68;91.07;101803.08;1706983;82;21040;-71
2021/12/14 08:34:29;;;;;;;38.55;18.98;;;;;;;2.69;91.06;101804.81;1710832;81;21008;-71
2021/12/14 08:37:10;;;;;;;51.75;22.52;;;;;;;2.70;91.03;101812.06;1716653;82;21139;-71
2021/12/14 08:40:02;;;;;;;50.03;25.02;;;;;;;2.70;91.05;101804.00;1710348;82;21052;-71
2021/12/14 08:42:49;;;;;;;59.85;26.52;;;;;;;2.72;91.06;101807.88;1716450;82;21131;-71
2021/12/14 08:45:26;;;;;;;46.28;24.92;;;;;;;2.73;91.02;101810.48;1701779;82;20980;-71
2021/12/14 08:48:13;;;;;;;47.45;22.00;;;;;;;2.74;91.03;101807.13;1719275;82;20902;-71
2021/12/14 08:50:56;;;;;;;38.53;20.90;;;;;;;2.77;91.05;101815.30;1701846;82;21044;-71
2021/12/14 08:53:34;;;;;;;42.80;20.62;;;;;;;2.78;91.00;101812.80;1721221;82;21108;-71
2021/12/14 08:56:04;;;;;;;39.63;19.65;;;;;;;2.80;91.00;101816.68;1707699;82;21012;-71
2021/12/14 08:58:31;;;;;;;42.15;20.97;;;;;;;2.81;90.98;101818.42;1707203;82;21078;-71
2021/12/14 09:01:00;;;;;;;;;;;;;;;2.83;90.95;101827.88;1725277;82;21069;-71
2021/12/14 09:03:34;;;;;;;42.17;20.95;;;;;;;2.86;90.94;101829.66;1702221;82;20094;-71
2021/12/14 09:06:06;;;;;;;44.03;22.07;;;;;;;2.86;90.90;101829.26;1709167;82;20949;-71
2021/12/14 09:08:34;;;;;;;42.53;22.42;;;;;;;2.87;90.87;101829.72;1707218;82;20957;-71
2021/12/14 09:11:03;;;;;;;43.40;22.98;;;;;;;2.89;90.87;101829.37;1704843;82;20909;-71
2021/12/14 09:13:31;;;;;;;41.83;22.70;;;;;;;2.91;90.84;101830.70;1712858;82;21284;-71
2021/12/14 09:16:02;;;;;;;45.73;23.22;;;;;;;2.93;90.85;101829.06;1709377;82;20913;-71
2021/12/14 09:18:34;;;;;;;44.83;23.83;;;;;;;2.94;90.84;101830.39;1720021;82;20917;-71
2021/12/14 09:21:27;;;;;;;45.45;23.77;;;;;;;2.95;90.81;101828.30;1702304;82;21409;-71
2021/12/14 09:23:59;;;;;;;45.23;22.75;;;;;;;2.98;90.82;101826.26;1711084;82;20910;-71
2021/12/14 09:26:31;;;;;;;48.98;24.90;;;;;;;2.99;90.80;101821.20;1711049;82;20914;-71
2021/12/14 09:28:58;;;;;;;48.08;24.60;;;;;;;3.01;90.77;101824.22;1709535;82;20918;-71
2021/12/14 09:31:29;;;;;;;46.58;25.88;;;;;;;3.02;90.78;101816.61;1708387;82;20867;-71
2021/12/14 09:33:59;;;;;;;54.70;27.22;;;;;;;3.04;90.76;101820.08;1709147;82;20913;-71
2021/12/14 09:36:29;;;;;;;51.53;26.73;;;;;;;3.06;90.74;101820.14;1720137;82;20958;-71
2021/12/14 09:39:08;;;;;;;52.90;28.25;;;;;;;3.06;90.74;101813.75;1711983;82;20898;-71
2021/12/14 09:41:34;;;;;;;55.70;27.95;;;;;;;3.06;90.73;101809.50;1702113;82;20945;-71
2021/12/14 09:44:06;;;;;;;57.67;29.15;;;;;;;3.07;90.71;101812.93;1702433;82;20910;-71
2021/12/14 09:46:33;;;;;;;64.77;32.13;;;;;;;3.09;90.74;101813.85;1717573;82;20870;-71
2021/12/14 09:49:04;;;;;;;63.52;32.08;;;;;;;3.12;90.75;101815.23;1706418;82;20917;-71
2021/12/14 09:51:42;;;;;;;63.63;32.60;;;;;;;3.12;90.71;101815.23;1701201;82;21870;-71
2021/12/14 09:54:13;;;;;;;60.73;30.50;;;;;;;3.12;90.74;101809.68;1710335;82;21127;-71
2021/12/14 09:56:47;;;;;;;61.45;30.35;;;;;;;3.14;90.73;101804.21;1722808;82;21012;-71
2021/12/14 09:59:16;;;;;;;71.92;34.20;;;;;;;3.16;90.73;101801.30;1706763;82;21103;-71
2021/12/14 10:01:59;;;;;;;64.72;31.30;;;;;;;3.15;90.67;101798.69;1709105;82;21116;-71
2021/12/14 10:04:30;;;;;;;60.70;30.75;;;;;;;3.15;90.66;101797.00;1700073;82;21088;-71
2021/12/14 10:07:00;;;;;;;64.12;32.58;;;;;;;3.15;90.65;101794.86;1700679;82;21083;-71
2021/12/14 10:09:31;;;;;;;64.27;33.00;;;;;;;3.16;90.68;101795.31;1694466;82;21532;-71
2021/12/14 10:12:15;;;;;;;64.82;33.23;;;;;;;3.16;90.68;101792.77;1702666;82;21457;-71
2021/12/14 10:14:37;;;;;;;63.87;33.88;;;;;;;3.17;90.70;101792.81;1721304;82;20969;-71
2021/12/14 10:17:08;;;;;;;67.82;35.75;;;;;;;3.19;90.70;101781.36;1713807;82;21064;-71
2021/12/14 10:19:36;;;;;;;65.87;34.10;;;;;;;3.20;90.71;101780.14;1701127;82;21080;-71
2021/12/14 10:22:08;;;;;;;65.42;34.90;;;;;;;3.21;90.71;101783.16;1702693;82;20925;-71
2021/12/14 10:24:35;;;;;;;64.65;33.53;;;;;;;3.21;90.67;101773.34;1717755;82;21052;-71
2021/12/14 10:27:12;;;;;;;72.87;36.95;;;;;;;3.23;90.69;101774.25;1702699;82;21048;-71
2021/12/14 10:29:42;;;;;;;70.32;34.50;;;;;;;3.22;90.67;101769.96;1700869;82;21056;-71
2021/12/14 10:32:14;;;;;;;67.45;34.55;;;;;;;3.23;90.66;101766.59;1711824;82;21042;-71
2021/12/14 10:34:48;;;;;;;73.28;35.23;;;;;;;3.22;90.64;101769.55;1721267;82;21106;-71
2021/12/14 10:37:25;;;;;;;75.50;33.53;;;;;;;3.23;90.66;101770.02;1702512;82;21442;-71
2021/12/14 10:43:16;;;;;;;63.13;29.12;;;;;;;3.24;90.71;101766.64;1704380;82;20579;-71
2021/12/14 10:45:16;;;;;;;68.35;31.62;;;;;;;3.24;90.73;101766.64;1694801;82;21328;-71
2021/12/14 10:47:42;;;;;;;64.10;31.57;;;;;;;3.26;90.73;101769.24;1724478;82;20917;-71
2021/12/14 10:50:14;;;;;;;61.25;29.72;;;;;;;3.25;90.72;101772.20;1708956;82;20957;-71
2021/12/14 10:52:43;;;;;;;58.58;31.25;;;;;;;3.25;90.68;101768.38;1702229;82;20957;-71
2021/12/14 10:55:14;;;;;;;59.98;30.50;;;;;;;3.28;90.75;101765.91;1704486;82;21449;-71
2021/12/14 10:57:41;;;;;;;63.50;32.20;;;;;;;3.29;90.75;101757.84;1708975;82;20925;-71
2021/12/14 11:00:32;;;;;;;64.12;31.82;;;;;;;3.30;90.76;101753.19;1710071;82;25198;-71
2021/12/14 11:03:07;;;;;;;65.28;31.68;;;;;;;3.31;90.72;101753.64;1708437;82;20902;-71
2021/12/14 11:05:34;;;;;;;58.60;29.07;;;;;;;3.30;90.70;101749.35;1724984;82;20941;-71
2021/12/14 11:08:01;;;;;;;60.63;28.73;;;;;;;3.32;90.70;101744.75;1710349;82;20957;-71
2021/12/14 11:10:36;;;;;;;61.02;30.70;;;;;;;3.30;90.67;101743.83;1716145;82;20933;-70
2021/12/14 11:13:10;;;;;;;57.95;30.00;;;;;;;3.30;90.67;101739.99;1702699;82;20957;-71
2021/12/14 11:15:48;;;;;;;58.73;29.63;;;;;;;3.30;90.67;101748.94;1716616;82;20902;-71
2021/12/14 11:18:20;;;;;;;60.20;31.05;;;;;;;3.32;90.70;101746.02;1707428;82;21359;-71
2021/12/14 11:20:58;;;;;;;57.55;29.63;;;;;;;3.34;90.73;101744.80;1702218;82;21421;-71
2021/12/14 11:23:35;;;;;;;57.20;29.85;;;;;;;3.35;90.70;101741.83;1716672;82;20906;-71
2021/12/14 11:26:29;;;;;;;57.27;30.25;;;;;;;3.38;90.75;101736.81;1699473;82;20894;-71
2021/12/14 11:29:02;;;;;;;63.42;30.48;;;;;;;3.40;90.76;101731.34;1720603;82;20914;-71
2021/12/14 11:31:54;;;;;;;68.78;35.08;;;;;;;3.42;90.76;101738.64;1710440;82;21020;-71
2021/12/14 11:34:37;;;;;;;60.58;31.55;;;;;;;3.47;90.85;101735.82;1716932;82;21227;-71
2021/12/14 11:37:09;;;;;;;65.72;34.20;;;;;;;3.51;90.88;101737.66;1717367;82;20897;-71
2021/12/14 11:39:46;;;;;;;69.47;34.05;;;;;;;3.53;90.83;101740.71;1719943;82;20937;-71
2021/12/14 11:42:25;;;;;;;63.98;33.18;;;;;;;3.57;90.88;101733.59;1740569;82;20957;-71
2021/12/14 11:45:08;;;;;;;84.40;42.48;;;;;;;3.61;90.87;101729.44;1721815;82;21070;-71
2021/12/14 11:47:46;;;;;;;93.90;50.00;;;;;;;3.63;90.86;101722.27;1702344;82;21060;-71
2021/12/14 11:50:20;;;;;;;79.82;42.20;;;;;;;3.66;90.84;101728.72;1710973;82;21053;-71
2021/12/14 11:52:57;;;;;;;72.40;38.73;;;;;;;3.67;90.81;101723.20;1722411;82;21085;-71
2021/12/14 11:55:34;;;;;;;59.18;32.75;;;;;;;3.69;90.77;101720.69;1711155;82;20914;-71
2021/12/14 11:58:33;;;;;;;59.67;30.05;;;;;;;3.71;90.81;101727.99;1714409;82;21063;-71
2021/12/14 12:01:33;;;;;;;51.33;28.27;;;;;;;3.72;90.83;101722.92;1701882;82;21088;-71
2021/12/14 12:04:32;;;;;;;49.95;27.95;;;;;;;3.75;90.85;101730.69;1714519;82;21115;-70
2021/12/14 12:09:35;;;;;;;53.60;28.00;;;;;;;3.80;90.87;101732.11;1703966;82;20985;-71
2021/12/14 12:12:10;;;;;;;47.58;26.73;;;;;;;3.82;90.89;101727.90;1719249;82;21108;-71
2021/12/14 12:15:02;;;;;;;52.08;28.02;;;;;;;3.84;90.87;101724.56;1716355;82;21068;-71
2021/12/14 12:17:43;;;;;;;50.28;26.42;;;;;;;3.84;90.85;101728.41;1711935;82;21107;-71
2021/12/14 12:20:37;;;;;;;51.37;27.98;;;;;;;3.86;90.84;101729.31;1719134;82;21056;-71